Time;durP1;ratioP1;P1;durP2;ratioP2;P2;SDS_P1;SDS_P2;PMS_P1;PMS_P2;Temp;Humidity;BMP_temperature;BMP_pressure;BME280_temperature;BME280_humidity;BME280_pressure;Samples;Min_cycle;Max_cycle;Signal;HPM_P1;HPM_P2
2022/07/14 00:01:06;;;;;;;2.42;2.20;;;19.40;99.90;;;;;;4336944;28;10000620;-76
2022/07/14 00:03:32;;;;;;;4.07;1.92;;;19.50;99.90;;;;;;5054087;28;20324;-76
2022/07/14 00:05:58;;;;;;;3.42;2.45;;;19.40;99.90;;;;;;5036837;28;20334;-76
2022/07/14 00:08:23;;;;;;;2.75;2.25;;;19.50;99.90;;;;;;5037390;28;20052;-76
2022/07/14 00:10:49;;;;;;;5.03;2.50;;;19.50;99.90;;;;;;5030634;28;20033;-76
2022/07/14 00:13:14;;;;;;;2.80;2.50;;;19.50;99.90;;;;;;5051605;28;20020;-76
2022/07/14 00:15:40;;;;;;;2.47;2.03;;;19.50;99.90;;;;;;5031331;28;20132;-76
2022/07/14 00:18:06;;;;;;;2.75;2.05;;;19.50;99.90;;;;;;5057902;28;20020;-76
2022/07/14 00:20:32;;;;;;;2.75;1.90;;;19.50;99.90;;;;;;5043095;28;20028;-76
2022/07/14 00:22:58;;;;;;;2.53;2.25;;;19.40;99.90;;;;;;5043874;28;20021;-76
2022/07/14 00:25:27;;;;;;;2.85;2.08;;;19.40;99.90;;;;;;5042457;28;20513;-76
2022/07/14 00:27:54;;;;;;;3.75;2.15;;;19.30;99.90;;;;;;5041765;28;20068;-76
2022/07/14 00:30:20;;;;;;;4.03;1.90;;;19.30;99.90;;;;;;5053744;28;20032;-76
2022/07/14 00:32:46;;;;;;;3.83;2.20;;;19.20;99.90;;;;;;5042158;28;20075;-76
2022/07/14 00:35:12;;;;;;;3.72;2.80;;;19.20;99.90;;;;;;5050977;28;20034;-76
2022/07/14 00:37:38;;;;;;;3.75;2.40;;;19.20;99.90;;;;;;5059155;28;20076;-76
2022/07/14 00:40:05;;;;;;;2.88;2.42;;;19.20;99.90;;;;;;5033728;28;20110;-76
2022/07/14 00:42:39;;;;;;;3.97;2.20;;;19.30;99.90;;;;;;5034599;28;20095;-76
2022/07/14 00:45:08;;;;;;;2.95;2.50;;;19.20;99.90;;;;;;5040429;28;20493;-76
2022/07/14 00:47:34;;;;;;;3.13;2.38;;;19.20;99.90;;;;;;5052501;28;20044;-76
2022/07/14 00:50:00;;;;;;;2.85;2.47;;;19.20;99.90;;;;;;5033563;28;20112;-76
2022/07/14 00:52:28;;;;;;;2.30;2.10;;;19.10;99.90;;;;;;5044445;28;20032;-76
2022/07/14 00:54:54;;;;;;;2.60;2.40;;;19.10;99.90;;;;;;5041381;28;20456;-76
2022/07/14 00:57:20;;;;;;;2.53;2.30;;;19.00;99.90;;;;;;5028613;28;20123;-76
2022/07/14 00:59:47;;;;;;;2.72;2.28;;;19.00;99.90;;;;;;5028442;28;20113;-76
2022/07/14 01:02:13;;;;;;;2.92;2.55;;;19.00;99.90;;;;;;5037443;28;20033;-76
2022/07/14 01:04:39;;;;;;;2.88;2.67;;;18.90;99.90;;;;;;5037415;28;20027;-76
2022/07/14 01:07:05;;;;;;;4.35;2.67;;;18.80;99.90;;;;;;5034611;28;20036;-76
2022/07/14 01:09:30;;;;;;;3.13;2.65;;;18.70;99.90;;;;;;5032726;28;20524;-76
2022/07/14 01:11:56;;;;;;;2.55;2.35;;;18.70;99.90;;;;;;5043899;28;20024;-76
2022/07/14 01:14:22;;;;;;;6.88;2.60;;;18.60;99.90;;;;;;5056348;28;20481;-76
2022/07/14 01:16:53;;;;;;;2.50;2.30;;;18.60;99.90;;;;;;5039278;28;20136;-76
2022/07/14 01:19:20;;;;;;;3.03;2.50;;;18.60;99.90;;;;;;5042450;28;20029;-76
2022/07/14 01:21:46;;;;;;;4.40;2.20;;;18.60;99.90;;;;;;5047933;28;20020;-76
2022/07/14 01:24:11;;;;;;;3.03;2.35;;;18.60;99.90;;;;;;5030823;28;20020;-76
2022/07/14 01:26:37;;;;;;;5.10;2.75;;;18.60;99.90;;;;;;5031294;28;20029;-76
2022/07/14 01:29:02;;;;;;;2.80;2.53;;;18.60;99.90;;;;;;5058230;28;20043;-76
2022/07/14 01:31:28;;;;;;;3.08;2.70;;;18.60;99.90;;;;;;5035136;28;20040;-76
2022/07/14 01:33:54;;;;;;;5.25;2.80;;;18.60;99.90;;;;;;5040374;28;20422;-76
2022/07/14 01:36:20;;;;;;;4.20;3.03;;;18.60;99.90;;;;;;5043842;28;20052;-76
2022/07/14 01:38:46;;;;;;;2.80;2.60;;;18.50;99.90;;;;;;5049786;28;20418;-76
2022/07/14 01:41:12;;;;;;;2.40;2.20;;;18.50;99.90;;;;;;5050009;28;20316;-76
2022/07/14 01:43:37;;;;;;;2.42;2.22;;;18.40;99.90;;;;;;5036692;28;20309;-76
2022/07/14 01:46:03;;;;;;;5.15;2.47;;;18.40;99.90;;;;;;5039303;28;20028;-76
2022/07/14 01:48:29;;;;;;;2.65;2.45;;;18.40;99.90;;;;;;5049435;28;21263;-76
2022/07/14 01:50:54;;;;;;;2.83;2.60;;;18.40;99.90;;;;;;5053423;28;20033;-76
2022/07/14 01:53:20;;;;;;;3.75;2.90;;;18.30;99.90;;;;;;5036829;28;20033;-76
2022/07/14 01:55:45;;;;;;;4.57;2.70;;;18.40;99.90;;;;;;5043475;28;20082;-76
2022/07/14 01:58:11;;;;;;;3.95;2.50;;;18.40;99.90;;;;;;5039449;28;20029;-76
2022/07/14 02:00:36;;;;;;;3.08;2.70;;;18.40;99.90;;;;;;5042980;28;20516;-76
2022/07/14 02:03:02;;;;;;;2.70;2.50;;;18.40;99.90;;;;;;5050682;28;20025;-76
2022/07/14 02:05:28;;;;;;;5.00;2.80;;;18.40;99.90;;;;;;5041939;28;20024;-76
2022/07/14 02:07:53;;;;;;;2.60;2.38;;;18.40;99.90;;;;;;5055127;28;20436;-76
2022/07/14 02:13:03;;;;;;;3.20;2.72;;;18.40;99.90;;;;;;5038129;28;20410;-76
2022/07/14 02:15:29;;;;;;;2.85;2.50;;;18.40;99.90;;;;;;5045847;28;20033;-76
2022/07/14 02:17:54;;;;;;;2.70;2.50;;;18.40;99.90;;;;;;5038347;28;20033;-76
2022/07/14 02:20:20;;;;;;;3.28;2.67;;;18.40;99.90;;;;;;5052908;28;20029;-76
2022/07/14 02:22:46;;;;;;;3.80;2.85;;;18.30;99.90;;;;;;5051595;28;20032;-76
2022/07/14 02:25:14;;;;;;;3.00;2.70;;;18.30;99.90;;;;;;5058253;28;20025;-76
2022/07/14 02:27:39;;;;;;;5.20;3.13;;;18.30;99.90;;;;;;5042504;28;20033;-75
2022/07/14 02:30:06;;;;;;;5.18;3.30;;;18.40;99.90;;;;;;5037716;28;20103;-76
2022/07/14 02:32:31;;;;;;;5.43;3.85;;;18.50;99.90;;;;;;5031113;28;20029;-76
2022/07/14 02:34:58;;;;;;;5.00;3.40;;;18.50;99.90;;;;;;5043372;28;20034;-76
2022/07/14 02:37:24;;;;;;;6.07;3.60;;;18.60;99.90;;;;;;5042635;28;20059;-76
2022/07/14 02:39:49;;;;;;;6.55;3.55;;;18.60;99.90;;;;;;5036910;28;20037;-76
2022/07/14 02:42:15;;;;;;;5.93;3.67;;;18.60;99.90;;;;;;5039692;28;20502;-76
2022/07/14 02:44:41;;;;;;;6.88;4.00;;;18.70;99.90;;;;;;5046679;28;20123;-76
2022/07/14 02:47:06;;;;;;;5.13;3.25;;;18.70;99.90;;;;;;5037072;28;20429;-76
2022/07/14 02:49:32;;;;;;;5.38;3.35;;;18.70;99.90;;;;;;5029414;28;20030;-76
2022/07/14 02:51:57;;;;;;;3.90;2.80;;;18.70;99.90;;;;;;5043500;28;20036;-76
2022/07/14 02:54:23;;;;;;;5.28;3.50;;;18.60;99.90;;;;;;5029418;28;20060;-76
2022/07/14 02:56:49;;;;;;;6.82;3.30;;;18.60;99.90;;;;;;5037607;28;20539;-76
2022/07/14 02:59:15;;;;;;;4.60;2.97;;;18.50;99.90;;;;;;5030875;28;20108;-76
2022/07/14 03:01:41;;;;;;;5.22;3.00;;;18.40;99.90;;;;;;5030895;28;20543;-76
2022/07/14 03:04:07;;;;;;;6.20;3.45;;;18.50;99.90;;;;;;5032045;28;20021;-76
2022/07/14 03:06:33;;;;;;;4.63;3.40;;;18.40;99.90;;;;;;5029771;28;20503;-76
2022/07/14 03:08:58;;;;;;;6.43;3.75;;;18.40;99.90;;;;;;5029504;28;21081;-76
2022/07/14 03:11:24;;;;;;;6.55;4.00;;;18.50;99.90;;;;;;5028145;28;20033;-76
2022/07/14 03:13:49;;;;;;;6.97;4.00;;;18.50;99.90;;;;;;5032071;28;20326;-75
2022/07/14 03:16:15;;;;;;;4.85;3.53;;;18.50;99.90;;;;;;5030050;28;20346;-75
2022/07/14 03:18:41;;;;;;;4.68;3.90;;;18.50;99.90;;;;;;5026399;28;20141;-79
2022/07/14 03:21:11;;;;;;;9.10;3.88;;;18.50;99.90;;;;;;5033686;28;20024;-75
2022/07/14 03:23:38;;;;;;;5.25;3.92;;;18.50;99.90;;;;;;5044675;28;20055;-76
2022/07/14 03:26:04;;;;;;;7.07;4.45;;;18.50;99.90;;;;;;5054574;28;20468;-75
2022/07/14 03:28:30;;;;;;;5.15;4.03;;;18.60;99.90;;;;;;5038162;28;20065;-75
2022/07/14 03:30:56;;;;;;;5.30;4.20;;;18.50;99.90;;;;;;5046424;28;20385;-75
2022/07/14 03:33:23;;;;;;;7.00;4.20;;;18.50;99.90;;;;;;5042693;28;20116;-75
2022/07/14 03:35:50;;;;;;;7.60;4.00;;;18.50;99.90;;;;;;5040613;28;20044;-75
2022/07/14 03:38:16;;;;;;;6.43;4.38;;;18.50;99.90;;;;;;5034995;28;20329;-75
2022/07/14 03:40:41;;;;;;;9.15;4.15;;;18.50;99.90;;;;;;5025809;28;20052;-75
2022/07/14 03:43:07;;;;;;;8.52;4.32;;;18.40;99.90;;;;;;5036180;28;20026;-76
2022/07/14 03:45:33;;;;;;;6.30;4.10;;;18.40;99.90;;;;;;5047704;28;20029;-75
2022/07/14 03:47:58;;;;;;;4.35;3.60;;;18.40;99.90;;;;;;5059257;28;20035;-76
2022/07/14 03:50:25;;;;;;;5.45;3.40;;;18.40;99.90;;;;;;5047771;28;20553;-76
2022/07/14 03:52:50;;;;;;;5.88;3.70;;;18.40;99.90;;;;;;5041862;28;20484;-76
2022/07/14 03:55:16;;;;;;;3.88;3.13;;;18.30;99.90;;;;;;5058812;28;20045;-76
2022/07/14 03:57:42;;;;;;;4.68;3.78;;;18.20;99.90;;;;;;5046505;28;20449;-76
2022/07/14 04:00:08;;;;;;;4.60;3.65;;;18.20;99.90;;;;;;5039500;28;20049;-76
2022/07/14 04:02:34;;;;;;;3.60;3.30;;;18.10;99.90;;;;;;5034035;28;20386;-76
2022/07/14 04:05:00;;;;;;;4.57;3.60;;;18.10;99.90;;;;;;5048974;28;20025;-76
2022/07/14 04:07:26;;;;;;;4.60;3.88;;;18.00;99.90;;;;;;5042964;28;20655;-76
2022/07/14 04:09:51;;;;;;;4.68;3.80;;;18.00;99.90;;;;;;5031745;28;20029;-75
2022/07/14 04:12:17;;;;;;;5.72;4.05;;;18.10;99.90;;;;;;5045305;28;20118;-76
2022/07/14 04:14:43;;;;;;;5.88;4.00;;;18.10;99.90;;;;;;5045826;28;20454;-76
2022/07/14 04:17:08;;;;;;;7.18;4.20;;;18.10;99.90;;;;;;5059647;28;20028;-76
2022/07/14 04:19:34;;;;;;;5.07;4.13;;;18.20;99.90;;;;;;5039223;28;20048;-76
2022/07/14 04:22:00;;;;;;;7.82;4.63;;;18.20;99.90;;;;;;5054609;28;20105;-76
2022/07/14 04:24:25;;;;;;;4.68;4.18;;;18.20;99.90;;;;;;5033533;28;20026;-76
2022/07/14 04:26:51;;;;;;;8.80;4.50;;;18.30;99.90;;;;;;5033385;28;20385;-75
2022/07/14 04:29:17;;;;;;;7.15;4.43;;;18.30;99.90;;;;;;5028189;28;20398;-75
2022/07/14 04:31:43;;;;;;;6.18;4.68;;;18.30;99.90;;;;;;5055288;28;20128;-76
2022/07/14 04:34:10;;;;;;;7.60;4.20;;;18.30;99.90;;;;;;5049209;28;20115;-76
2022/07/14 04:36:36;;;;;;;5.40;4.05;;;18.30;99.90;;;;;;5050098;28;20049;-76
2022/07/14 04:39:04;;;;;;;5.22;4.28;;;18.40;99.90;;;;;;5044355;28;20031;-76
2022/07/14 04:41:29;;;;;;;4.38;3.70;;;18.40;99.90;;;;;;5045584;28;20108;-76
2022/07/14 04:43:55;;;;;;;6.50;3.70;;;18.50;99.90;;;;;;5027197;28;20478;-76
2022/07/14 04:46:20;;;;;;;8.27;3.65;;;18.50;99.90;;;;;;5038963;28;20071;-76
2022/07/14 04:54:14;;;;;;;8.05;4.00;;;18.50;99.90;;;;;;5035315;28;20082;-76
2022/07/14 04:56:40;;;;;;;8.18;4.20;;;18.50;99.90;;;;;;5044907;28;20032;-80
2022/07/14 04:59:05;;;;;;;7.05;3.85;;;18.50;99.90;;;;;;5035281;28;20025;-80
2022/07/14 05:01:31;;;;;;;7.60;4.10;;;18.40;99.90;;;;;;5034822;28;20033;-80
2022/07/14 05:03:56;;;;;;;8.88;4.68;;;18.40;99.90;;;;;;5028735;28;20044;-80
2022/07/14 05:06:22;;;;;;;6.63;3.92;;;18.40;99.90;;;;;;5051897;28;20123;-81
2022/07/14 05:08:48;;;;;;;13.80;4.45;;;18.30;99.90;;;;;;5058169;28;20033;-82
2022/07/14 05:11:13;;;;;;;6.30;4.07;;;18.20;99.90;;;;;;5041095;28;20033;-81
2022/07/14 05:13:39;;;;;;;6.38;4.25;;;18.20;99.90;;;;;;5034705;28;20116;-82
2022/07/14 05:16:05;;;;;;;9.23;4.25;;;18.20;99.90;;;;;;5034044;28;20124;-79
2022/07/14 05:18:30;;;;;;;9.35;4.30;;;18.10;99.90;;;;;;5032664;28;20430;-81
2022/07/14 05:20:56;;;;;;;8.13;3.90;;;18.10;99.90;;;;;;5035363;28;20029;-81
2022/07/14 05:23:22;;;;;;;8.20;3.97;;;18.10;99.90;;;;;;5036922;28;20462;-81
2022/07/14 05:25:48;;;;;;;9.93;4.80;;;18.10;99.90;;;;;;5046043;28;20024;-81
2022/07/14 05:28:14;;;;;;;9.70;4.10;;;18.10;99.90;;;;;;5034098;28;20067;-81
2022/07/14 05:30:39;;;;;;;6.43;3.83;;;18.10;99.90;;;;;;5044738;28;20053;-81
2022/07/14 05:33:05;;;;;;;9.10;3.90;;;18.10;99.90;;;;;;5029797;28;21985;-81
2022/07/14 05:35:31;;;;;;;7.18;4.05;;;18.10;99.90;;;;;;5034426;28;20036;-81
2022/07/14 05:37:56;;;;;;;6.93;3.97;;;18.10;99.90;;;;;;5046024;28;20025;-81
2022/07/14 05:40:22;;;;;;;9.45;4.50;;;18.10;99.90;;;;;;5034736;28;20070;-81
2022/07/14 05:42:47;;;;;;;10.75;4.82;;;18.00;99.90;;;;;;5029853;28;20112;-81
2022/07/14 05:45:13;;;;;;;8.55;4.47;;;18.00;99.90;;;;;;5052645;28;20173;-81
2022/07/14 05:47:41;;;;;;;8.40;4.43;;;18.00;99.90;;;;;;5038086;28;20485;-81
2022/07/14 05:50:08;;;;;;;10.85;5.00;;;18.00;99.90;;;;;;5047016;28;20045;-81
2022/07/14 05:52:33;;;;;;;12.05;4.55;;;18.00;99.90;;;;;;5032030;28;20021;-81
2022/07/14 05:55:00;;;;;;;7.60;3.95;;;17.90;99.90;;;;;;5041059;28;20033;-81
2022/07/14 05:57:26;;;;;;;8.88;4.32;;;17.90;99.90;;;;;;5037308;28;20060;-81
2022/07/14 05:59:52;;;;;;;12.60;4.43;;;17.90;99.90;;;;;;5026065;28;20598;-81
2022/07/14 06:02:17;;;;;;;10.40;4.70;;;17.90;99.90;;;;;;5036625;28;20107;-81
2022/07/14 06:04:43;;;;;;;10.70;4.05;;;17.90;99.90;;;;;;5039318;28;20075;-81
2022/07/14 06:07:09;;;;;;;8.30;4.40;;;17.90;99.90;;;;;;5034673;28;20542;-81
2022/07/14 06:09:39;;;;;;;11.85;4.20;;;17.80;99.90;;;;;;5025468;28;20029;-81
2022/07/14 06:12:06;;;;;;;7.55;4.15;;;17.90;99.90;;;;;;5034200;28;20033;-81
2022/07/14 06:14:32;;;;;;;9.50;4.20;;;17.80;99.90;;;;;;5031861;28;20029;-81
2022/07/14 06:16:58;;;;;;;8.07;3.92;;;17.80;99.90;;;;;;5034344;28;20108;-81
2022/07/14 06:19:24;;;;;;;14.40;3.90;;;17.90;99.90;;;;;;5036026;28;20132;-81
2022/07/14 06:21:49;;;;;;;10.10;4.30;;;17.90;99.90;;;;;;5034874;28;20541;-77
2022/07/14 06:24:15;;;;;;;11.80;4.20;;;17.90;99.90;;;;;;5040664;28;20101;-77
2022/07/14 06:26:41;;;;;;;7.90;4.10;;;17.90;99.90;;;;;;5029442;28;20053;-77
2022/07/14 06:29:07;;;;;;;9.95;4.13;;;17.90;99.90;;;;;;5034249;28;20604;-77
2022/07/14 06:31:34;;;;;;;7.60;3.88;;;17.90;99.90;;;;;;5033169;28;20108;-77
2022/07/14 06:34:00;;;;;;;9.60;3.72;;;18.00;99.90;;;;;;5030975;28;20144;-77
2022/07/14 06:36:26;;;;;;;8.98;4.30;;;18.00;99.90;;;;;;5033588;28;20126;-77
2022/07/14 06:38:52;;;;;;;12.23;4.13;;;18.10;99.90;;;;;;5033857;28;20558;-77
2022/07/14 06:41:20;;;;;;;9.20;4.28;;;18.10;99.90;;;;;;5035420;28;20393;-77
2022/07/14 06:43:46;;;;;;;10.60;4.20;;;18.20;99.90;;;;;;5041534;28;20022;-77
2022/07/14 06:46:15;;;;;;;15.18;4.60;;;18.10;99.90;;;;;;5028989;28;20040;-77
2022/07/14 06:48:41;;;;;;;8.65;4.07;;;18.20;99.90;;;;;;5026172;28;20026;-77
2022/07/14 06:51:07;;;;;;;10.38;4.18;;;18.20;99.90;;;;;;5030375;28;20330;-77
2022/07/14 06:53:33;;;;;;;11.82;4.30;;;18.20;99.90;;;;;;5033793;28;20064;-77
2022/07/14 06:55:59;;;;;;;11.98;4.10;;;18.20;99.90;;;;;;5033710;28;20112;-77
2022/07/14 06:58:24;;;;;;;9.93;4.38;;;18.30;99.90;;;;;;5038118;28;20025;-77
2022/07/14 07:00:50;;;;;;;10.82;4.05;;;18.30;99.90;;;;;;5030336;28;20054;-77
2022/07/14 07:03:15;;;;;;;13.73;4.28;;;18.40;99.90;;;;;;5035461;28;20033;-77
2022/07/14 07:08:28;;;;;;;9.00;4.07;;;18.60;99.90;;;;;;5036749;28;20528;-77
2022/07/14 07:10:55;;;;;;;12.88;4.55;;;18.70;99.90;;;;;;5028777;28;20080;-77
2022/07/14 07:13:21;;;;;;;9.43;4.13;;;18.80;99.90;;;;;;5031000;28;20448;-77
2022/07/14 07:15:47;;;;;;;11.38;4.47;;;18.80;99.90;;;;;;5033686;28;20028;-77
2022/07/14 07:18:12;;;;;;;8.25;4.18;;;18.90;99.90;;;;;;5030430;28;20044;-76
2022/07/14 07:20:38;;;;;;;7.72;4.07;;;19.00;99.90;;;;;;5030975;28;20029;-77
2022/07/14 07:23:04;;;;;;;9.80;4.45;;;19.00;99.90;;;;;;5026838;28;20029;-77
2022/07/14 07:25:30;;;;;;;9.85;4.50;;;19.10;99.90;;;;;;5027258;28;20474;-77
2022/07/14 07:27:56;;;;;;;8.57;4.22;;;19.10;99.90;;;;;;5034393;28;20028;-77
2022/07/14 07:30:22;;;;;;;11.00;4.20;;;19.20;99.90;;;;;;5036146;28;20453;-77
2022/07/14 07:32:47;;;;;;;9.98;4.00;;;19.50;99.90;;;;;;5036187;28;20028;-77
2022/07/14 07:35:13;;;;;;;10.70;4.50;;;19.60;99.90;;;;;;5040586;28;20087;-77
2022/07/14 07:37:38;;;;;;;7.72;3.67;;;19.80;99.90;;;;;;5026761;28;20127;-77
2022/07/14 07:40:05;;;;;;;11.68;4.00;;;20.00;99.90;;;;;;5024628;28;20021;-77
2022/07/14 07:42:30;;;;;;;7.38;4.00;;;20.20;99.90;;;;;;5036181;28;20102;-77
2022/07/14 07:44:57;;;;;;;9.88;4.10;;;20.50;99.90;;;;;;5040749;28;20469;-77
2022/07/14 07:47:24;;;;;;;6.88;4.03;;;20.60;99.90;;;;;;5032473;28;20116;-77
2022/07/14 07:49:51;;;;;;;7.65;3.45;;;20.80;99.90;;;;;;5034074;28;20105;-77
2022/07/14 07:52:16;;;;;;;8.32;3.88;;;20.90;99.90;;;;;;5033168;28;20223;-77
2022/07/14 07:54:44;;;;;;;9.63;4.50;;;21.10;99.90;;;;;;5034338;28;20029;-77
2022/07/14 07:57:13;;;;;;;8.27;3.85;;;21.40;99.90;;;;;;5033353;28;20037;-77
2022/07/14 07:59:39;;;;;;;8.07;3.88;;;21.40;99.90;;;;;;5029689;28;20037;-77
2022/07/14 08:02:05;;;;;;;9.65;4.82;;;21.50;99.90;;;;;;5026067;28;20380;-77
2022/07/14 08:04:33;;;;;;;9.68;4.22;;;21.70;99.90;;;;;;5034383;28;20044;-77
2022/07/14 08:06:59;;;;;;;6.75;3.88;;;21.70;99.90;;;;;;5032986;28;20522;-77
2022/07/14 08:09:25;;;;;;;9.68;4.53;;;22.00;99.90;;;;;;5028473;28;20041;-77
2022/07/14 08:11:51;;;;;;;8.38;4.15;;;22.00;99.90;;;;;;5033798;28;20032;-77
2022/07/14 08:17:01;;;;;;;9.63;4.53;;;21.90;99.90;;;;;;5027072;28;20040;-77
2022/07/14 08:19:27;;;;;;;9.77;3.78;;;21.80;99.90;;;;;;5047069;28;20096;-77
2022/07/14 08:21:53;;;;;;;6.95;3.83;;;21.70;99.90;;;;;;5034891;28;20021;-77
2022/07/14 08:24:19;;;;;;;10.07;4.13;;;21.50;99.90;;;;;;5038319;28;20123;-76
2022/07/14 08:26:46;;;;;;;8.25;3.92;;;21.50;99.90;;;;;;5044479;28;20025;-76
2022/07/14 08:29:12;;;;;;;9.60;4.53;;;21.40;99.90;;;;;;5031529;28;20473;-75
2022/07/14 08:31:38;;;;;;;8.38;4.15;;;21.40;99.90;;;;;;5033105;28;20199;-75
2022/07/14 08:34:03;;;;;;;11.73;3.78;;;21.40;99.90;;;;;;5030245;28;20025;-74
2022/07/14 08:36:30;;;;;;;7.20;3.67;;;21.40;99.90;;;;;;5028876;28;20041;-74
2022/07/14 08:38:57;;;;;;;7.80;4.18;;;21.40;99.90;;;;;;5050119;28;20384;-76
2022/07/14 08:41:23;;;;;;;5.78;3.53;;;21.60;99.90;;;;;;5047005;28;20277;-74
2022/07/14 08:43:51;;;;;;;10.23;3.90;;;21.60;99.90;;;;;;5049854;28;20024;-75
2022/07/14 08:46:18;;;;;;;11.52;4.40;;;21.70;99.90;;;;;;5058969;28;20040;-75
2022/07/14 08:48:47;;;;;;;11.40;4.95;;;21.80;99.90;;;;;;5048684;28;20032;-74
2022/07/14 08:51:14;;;;;;;10.57;4.03;;;21.90;99.90;;;;;;5049193;28;20254;-74
2022/07/14 08:53:39;;;;;;;6.82;3.75;;;22.10;99.90;;;;;;5048441;28;20078;-75
2022/07/14 08:56:05;;;;;;;6.97;4.05;;;22.30;99.90;;;;;;5051995;28;20037;-77
2022/07/14 08:58:31;;;;;;;7.53;3.88;;;22.40;99.90;;;;;;5050728;28;20104;-76
2022/07/14 09:00:58;;;;;;;9.05;4.10;;;22.50;99.90;;;;;;5054465;28;20048;-77
2022/07/14 09:03:24;;;;;;;9.27;4.63;;;22.50;99.90;;;;;;5053912;28;20712;-75
2022/07/14 09:05:49;;;;;;;8.65;4.78;;;22.40;99.90;;;;;;5046345;28;20021;-75
2022/07/14 09:08:17;;;;;;;7.55;4.15;;;22.40;99.90;;;;;;5051261;28;20579;-76
2022/07/14 09:10:44;;;;;;;8.80;4.60;;;22.30;99.90;;;;;;5042052;28;20642;-77
2022/07/14 09:13:18;;;;;;;8.73;4.50;;;22.30;99.90;;;;;;5044747;28;20047;-74
2022/07/14 09:15:44;;;;;;;9.38;4.32;;;22.20;99.90;;;;;;5047812;28;20030;-74
2022/07/14 09:18:17;;;;;;;7.97;4.22;;;22.20;99.90;;;;;;5054880;28;20452;-74
2022/07/14 09:20:43;;;;;;;12.93;4.78;;;22.10;99.90;;;;;;5049182;28;20024;-74
2022/07/14 09:23:09;;;;;;;8.00;4.57;;;22.10;99.90;;;;;;5051210;28;20029;-74
2022/07/14 09:25:35;;;;;;;11.90;4.90;;;22.00;99.90;;;;;;5050216;28;20037;-75
2022/07/14 09:28:02;;;;;;;8.00;4.93;;;22.00;99.90;;;;;;5050123;28;20230;-77
2022/07/14 09:30:27;;;;;;;11.65;4.70;;;21.90;99.90;;;;;;5046301;28;20039;-75
2022/07/14 09:32:58;;;;;;;8.45;4.60;;;21.80;99.90;;;;;;5049208;28;20028;-74
2022/07/14 09:35:25;;;;;;;10.35;4.30;;;21.70;99.90;;;;;;5053811;28;20331;-73
2022/07/14 09:37:53;;;;;;;6.88;3.90;;;21.60;99.90;;;;;;5057769;28;20044;-75
2022/07/14 09:40:31;;;;;;;10.38;4.07;;;21.60;99.90;;;;;;5044209;28;20036;-75
2022/07/14 09:43:00;;;;;;;9.73;4.30;;;21.60;99.90;;;;;;5056543;28;20107;-74
2022/07/14 09:45:29;;;;;;;8.02;4.40;;;21.60;99.90;;;;;;5055394;28;20037;-74
2022/07/14 09:48:03;;;;;;;6.50;4.13;;;21.70;99.90;;;;;;5054184;28;20496;-75
2022/07/14 09:50:47;;;;;;;8.63;3.90;;;21.90;99.90;;;;;;5051323;28;20028;-75
2022/07/14 09:53:32;;;;;;;14.30;4.20;;;22.20;99.90;;;;;;5051319;28;20131;-75
2022/07/14 09:56:03;;;;;;;7.50;4.25;;;22.70;99.90;;;;;;5061364;28;20054;-75
2022/07/14 09:58:44;;;;;;;8.70;3.90;;;23.20;99.90;;;;;;5060240;28;20029;-74
2022/07/14 10:01:15;;;;;;;10.65;4.25;;;23.80;99.90;;;;;;5057333;28;20089;-76
2022/07/14 10:03:44;;;;;;;6.47;3.53;;;24.00;99.90;;;;;;5054746;28;20035;-76
2022/07/14 10:06:11;;;;;;;8.75;4.10;;;23.90;99.90;;;;;;5051424;28;20061;-73
2022/07/14 10:08:43;;;;;;;8.55;4.25;;;23.90;99.90;;;;;;5054466;28;20045;-74
2022/07/14 10:11:10;;;;;;;8.35;4.20;;;24.00;99.90;;;;;;5051720;28;20477;-75
2022/07/14 10:13:37;;;;;;;9.68;4.20;;;24.30;99.90;;;;;;5047195;28;20215;-76
2022/07/14 10:16:03;;;;;;;8.60;3.38;;;24.40;99.90;;;;;;5048808;28;20029;-74
2022/07/14 10:18:29;;;;;;;12.75;4.03;;;24.50;99.90;;;;;;5047373;28;20436;-75
2022/07/14 10:20:57;;;;;;;9.05;4.35;;;24.40;99.90;;;;;;5050062;28;20060;-75
2022/07/14 10:23:25;;;;;;;10.93;4.20;;;24.30;99.90;;;;;;5050493;28;20036;-75
2022/07/14 10:25:54;;;;;;;8.27;4.13;;;24.30;99.90;;;;;;5049580;28;20032;-75
2022/07/14 10:28:20;;;;;;;9.43;4.30;;;24.10;99.90;;;;;;5045357;28;20061;-76
2022/07/14 10:31:07;;;;;;;11.93;3.88;;;23.80;99.90;;;;;;5058869;28;20021;-76
2022/07/14 10:33:39;;;;;;;8.25;4.13;;;23.60;99.90;;;;;;5055796;28;20519;-76
2022/07/14 10:36:14;;;;;;;13.15;4.47;;;23.50;99.90;;;;;;5048671;28;20049;-76
2022/07/14 10:39:07;;;;;;;8.48;3.97;;;23.40;99.90;;;;;;5050260;28;20154;-76
2022/07/14 10:41:51;;;;;;;14.13;5.37;;;23.40;99.90;;;;;;5052766;28;20020;-76
2022/07/14 10:44:23;;;;;;;10.98;5.50;;;23.50;99.90;;;;;;5048416;28;20025;-75
2022/07/14 10:46:53;;;;;;;10.95;5.30;;;23.50;99.90;;;;;;5054215;28;20060;-75
2022/07/14 10:49:19;;;;;;;10.18;5.25;;;23.50;99.90;;;;;;5052604;28;20343;-76
2022/07/14 10:51:47;;;;;;;8.10;5.13;;;23.50;99.90;;;;;;5049571;28;20094;-76
2022/07/14 10:54:19;;;;;;;6.57;4.47;;;23.50;99.90;;;;;;5059141;28;20132;-76
2022/07/14 10:56:45;;;;;;;9.00;5.10;;;23.80;99.90;;;;;;5060541;28;20431;-76
2022/07/14 10:59:26;;;;;;;7.38;4.50;;;23.90;99.90;;;;;;5057665;28;20036;-76
2022/07/14 11:02:13;;;;;;;7.03;4.60;;;24.20;99.90;;;;;;5066710;28;20035;-76
2022/07/14 11:05:02;;;;;;;9.88;5.13;;;24.50;99.90;;;;;;5047925;28;20036;-76
2022/07/14 11:07:59;;;;;;;7.20;4.28;;;24.80;99.90;;;;;;5053118;28;20724;-76
2022/07/14 11:10:25;;;;;;;10.52;4.57;;;25.00;98.40;;;;;;5051308;28;20028;-76
2022/07/14 11:12:59;;;;;;;8.55;4.80;;;25.10;96.60;;;;;;5059547;28;20055;-76
2022/07/14 11:15:53;;;;;;;8.50;4.72;;;25.40;95.80;;;;;;5046680;28;20029;-76
2022/07/14 11:18:18;;;;;;;9.77;5.00;;;25.50;94.20;;;;;;5053306;28;20050;-76
2022/07/14 11:21:03;;;;;;;8.98;4.03;;;25.50;94.20;;;;;;5051572;28;20501;-76
2022/07/14 11:23:32;;;;;;;7.82;4.68;;;25.40;93.50;;;;;;5052350;28;20138;-76
2022/07/14 11:26:03;;;;;;;8.48;4.43;;;25.30;93.70;;;;;;5056967;28;20374;-76
2022/07/14 11:28:31;;;;;;;8.90;4.45;;;25.00;92.40;;;;;;5061144;28;20040;-76
2022/07/14 11:31:19;;;;;;;6.25;3.95;;;24.70;93.80;;;;;;5051860;28;20058;-76
2022/07/14 11:36:38;;;;;;;9.18;4.03;;;25.10;92.30;;;;;;5050815;28;20570;-76
2022/07/14 11:39:16;;;;;;;7.90;3.47;;;25.30;92.60;;;;;;5053476;28;20439;-76
2022/07/14 11:41:49;;;;;;;6.63;3.63;;;25.40;93.00;;;;;;5046163;28;22120;-76
2022/07/14 11:44:32;;;;;;;;;;;25.40;91.70;;;;;;5052752;28;20341;-76
2022/07/14 11:46:59;;;;;;;8.00;4.13;;;25.40;91.40;;;;;;5049553;28;19915;-76
2022/07/14 11:49:26;;;;;;;8.60;4.03;;;25.40;91.60;;;;;;5055982;28;20046;-76
2022/07/14 11:51:56;;;;;;;9.07;3.67;;;25.20;91.80;;;;;;5047578;28;20496;-76
2022/07/14 11:54:23;;;;;;;11.02;4.25;;;24.90;92.30;;;;;;5051046;28;20029;-76
2022/07/14 11:56:49;;;;;;;10.48;4.30;;;24.70;92.50;;;;;;5048852;28;20167;-76
2022/07/14 11:59:19;;;;;;;14.00;4.60;;;24.70;92.70;;;;;;5047836;28;20025;-76
2022/07/14 12:01:45;;;;;;;10.40;4.25;;;24.80;92.10;;;;;;5048592;28;20029;-76
2022/07/14 12:04:16;;;;;;;10.13;3.80;;;25.00;91.00;;;;;;5059264;28;20024;-76
2022/07/14 12:06:47;;;;;;;12.38;4.32;;;25.10;91.20;;;;;;5047557;28;20107;-76
2022/07/14 12:09:16;;;;;;;8.02;3.38;;;25.10;90.30;;;;;;5052203;28;20108;-76
2022/07/14 12:11:52;;;;;;;12.05;3.42;;;25.20;88.80;;;;;;5046492;28;20040;-76
2022/07/14 12:14:18;;;;;;;11.32;3.85;;;25.30;85.00;;;;;;5046102;28;20429;-76
2022/07/14 12:16:45;;;;;;;8.57;2.90;;;25.30;83.10;;;;;;5047618;28;20029;-76
2022/07/14 12:19:12;;;;;;;12.85;3.92;;;25.70;81.20;;;;;;5043149;28;20040;-75
2022/07/14 12:21:38;;;;;;;8.95;3.78;;;25.90;78.00;;;;;;5061224;28;20481;-76
2022/07/14 12:24:11;;;;;;;9.68;3.67;;;26.00;79.80;;;;;;5051100;28;20435;-77
2022/07/14 12:26:37;;;;;;;8.35;2.97;;;26.10;78.00;;;;;;5052048;28;20029;-76
2022/07/14 12:29:04;;;;;;;6.90;2.63;;;26.10;73.50;;;;;;5047143;28;20119;-76
2022/07/14 12:31:37;;;;;;;7.55;2.70;;;26.00;72.40;;;;;;5055636;28;20032;-76
2022/07/14 12:34:03;;;;;;;;;;;26.20;69.50;;;;;;5062961;28;20060;-76
2022/07/14 12:36:30;;;;;;;8.38;2.55;;;26.30;69.50;;;;;;5053922;28;20396;-76
2022/07/14 12:38:57;;;;;;;8.10;3.05;;;26.30;66.40;;;;;;5041646;28;20020;-76
2022/07/14 12:41:25;;;;;;;8.02;2.58;;;26.40;66.30;;;;;;5047095;28;20033;-76
2022/07/14 12:43:51;;;;;;;5.85;2.50;;;26.30;64.70;;;;;;5045934;28;20064;-76
2022/07/14 12:46:18;;;;;;;8.45;2.80;;;26.30;64.40;;;;;;5053736;28;20036;-76
2022/07/14 12:48:50;;;;;;;8.07;2.60;;;26.40;64.30;;;;;;5061306;28;20397;-76
2022/07/14 12:51:16;;;;;;;6.40;2.75;;;26.50;64.40;;;;;;5050454;28;20029;-76
2022/07/14 12:54:01;;;;;;;8.70;2.60;;;26.50;64.40;;;;;;5052132;28;20485;-76
2022/07/14 12:56:29;;;;;;;6.53;2.60;;;26.70;65.60;;;;;;5061572;28;20459;-77
2022/07/14 12:58:58;;;;;;;7.25;2.85;;;26.90;63.30;;;;;;5062315;28;20043;-76
2022/07/14 13:01:25;;;;;;;7.60;2.65;;;27.00;64.10;;;;;;5057313;28;20132;-76
2022/07/14 13:03:56;;;;;;;6.03;3.00;;;27.10;63.30;;;;;;5049667;28;20167;-76